Time;durP1;ratioP1;P1;durP2;ratioP2;P2;SDS_P1;SDS_P2;PMS_P1;PMS_P2;Temp;Humidity;BMP_temperature;BMP_pressure;BME280_temperature;BME280_humidity;BME280_pressure;Samples;Min_cycle;Max_cycle;Signal;HPM_P1;HPM_P2
2023/06/10 00:02:10;;;;;;;3.20;1.15;;;;;;;24.43;57.34;98935.66;5094859;28;20051;-72
2023/06/10 00:04:36;;;;;;;1.70;0.73;;;;;;;24.43;57.59;98932.13;5095313;28;20074;-72
2023/06/10 00:07:08;;;;;;;2.47;0.82;;;;;;;24.40;57.40;98934.09;5095169;28;20066;-72
2023/06/10 00:09:36;;;;;;;3.10;1.10;;;;;;;24.39;57.26;98920.88;5094818;28;20051;-72
2023/06/10 00:12:02;;;;;;;1.50;0.70;;;;;;;24.40;57.20;98918.09;5095017;28;20109;-72
2023/06/10 00:14:28;;;;;;;3.10;0.93;;;;;;;24.42;57.43;98919.78;5094951;28;20061;-71
2023/06/10 00:16:53;;;;;;;3.05;0.98;;;;;;;24.43;57.15;98921.47;5094566;28;20024;-72
2023/06/10 00:19:18;;;;;;;2.17;1.08;;;;;;;24.42;57.25;98911.78;5095068;28;20640;-72
2023/06/10 00:21:44;;;;;;;2.78;0.90;;;;;;;24.41;57.46;98913.59;5094545;28;20024;-72
2023/06/10 00:24:11;;;;;;;3.22;0.95;;;;;;;24.39;57.33;98916.41;5094668;28;20096;-71
2023/06/10 00:26:38;;;;;;;2.65;1.00;;;;;;;24.43;57.31;98910.78;5094679;28;20361;-72
2023/06/10 00:29:05;;;;;;;2.78;0.95;;;;;;;24.40;57.19;98907.41;5094784;28;20055;-72
2023/06/10 00:31:30;;;;;;;2.60;0.80;;;;;;;24.40;57.42;98907.41;5092978;28;20020;-72
2023/06/10 00:33:56;;;;;;;1.48;0.70;;;;;;;24.39;57.34;98905.72;5084329;28;20020;-72
2023/06/10 00:36:21;;;;;;;4.25;1.10;;;;;;;24.39;57.12;98911.06;5074261;28;20020;-72
2023/06/10 00:38:47;;;;;;;2.50;1.10;;;;;;;24.40;56.94;98906.56;5074235;28;20074;-72
2023/06/10 00:41:12;;;;;;;1.90;0.77;;;;;;;24.39;57.20;98900.41;5074031;28;20054;-72
2023/06/10 00:43:37;;;;;;;1.85;0.73;;;;;;;24.38;57.36;98905.84;5081638;28;20107;-71
2023/06/10 00:46:03;;;;;;;2.28;1.27;;;;;;;24.36;57.22;98895.31;5093964;28;20069;-72
2023/06/10 00:48:29;;;;;;;2.35;1.08;;;;;;;24.39;57.02;98896.88;5093841;28;20031;-72
2023/06/10 00:50:54;;;;;;;2.50;0.90;;;;;;;24.37;56.94;98897.00;5094117;28;20544;-71
2023/06/10 00:53:21;;;;;;;1.92;0.95;;;;;;;24.40;56.95;98895.91;5092897;28;20009;-72
2023/06/10 00:55:47;;;;;;;4.28;0.80;;;;;;;24.36;57.12;98900.66;5094136;28;20476;-72
2023/06/10 00:58:13;;;;;;;0.85;0.63;;;;;;;24.36;57.02;98903.31;5093888;28;20055;-71
2023/06/10 01:00:39;;;;;;;3.38;0.90;;;;;;;24.37;56.79;98904.16;5092194;28;20020;-72
2023/06/10 01:03:08;;;;;;;2.40;0.98;;;;;;;24.35;57.01;98903.47;5075021;28;20032;-72
2023/06/10 01:05:37;;;;;;;2.65;0.80;;;;;;;24.36;57.00;98908.63;5092581;28;20569;-72
2023/06/10 01:08:28;;;;;;;1.63;0.73;;;;;;;24.35;56.73;98906.97;5092658;28;20044;-72
2023/06/10 01:11:00;;;;;;;2.20;0.82;;;;;;;24.34;56.85;98902.59;5092667;28;20028;-72
2023/06/10 01:13:28;;;;;;;2.83;0.63;;;;;;;24.32;56.82;98912.56;5088305;28;20051;-72
2023/06/10 01:15:55;;;;;;;1.92;0.80;;;;;;;24.33;56.83;98910.72;5073213;28;20029;-73
2023/06/10 01:18:21;;;;;;;2.10;0.90;;;;;;;24.29;56.73;98910.13;5073499;28;20090;-72
2023/06/10 01:20:48;;;;;;;1.40;0.60;;;;;;;24.31;56.88;98902.84;5075971;28;20476;-72
2023/06/10 01:23:14;;;;;;;2.58;0.80;;;;;;;24.31;56.86;98902.84;5076815;28;20031;-72
2023/06/10 01:25:44;;;;;;;2.60;0.70;;;;;;;24.28;56.78;98903.13;5093521;28;20055;-72
2023/06/10 01:28:21;;;;;;;3.00;0.90;;;;;;;24.30;56.83;98906.50;5093467;28;20024;-72
2023/06/10 01:31:00;;;;;;;3.88;0.98;;;;;;;24.29;56.92;98903.94;5093108;28;20073;-72
2023/06/10 01:33:36;;;;;;;2.65;1.08;;;;;;;24.26;56.85;98907.75;5088136;28;20427;-72
2023/06/10 01:36:03;;;;;;;3.03;0.70;;;;;;;24.27;56.65;98909.44;5073515;28;20040;-72
2023/06/10 01:38:32;;;;;;;2.13;0.80;;;;;;;24.25;56.65;98908.69;5072978;28;20033;-72
2023/06/10 01:40:59;;;;;;;4.57;1.08;;;;;;;24.23;56.61;98908.84;5072911;28;20028;-72
2023/06/10 01:43:25;;;;;;;2.53;0.80;;;;;;;24.23;56.90;98905.31;5077094;28;20488;-72
2023/06/10 01:45:50;;;;;;;1.55;0.80;;;;;;;24.25;56.58;98911.38;5093253;28;20016;-72
2023/06/10 01:48:16;;;;;;;5.03;0.80;;;;;;;24.23;56.62;98908.00;5093011;28;20043;-72
2023/06/10 01:50:43;;;;;;;1.65;0.65;;;;;;;24.23;56.62;98910.66;5093147;28;20488;-73
2023/06/10 01:53:09;;;;;;;1.90;0.70;;;;;;;24.23;56.66;98910.66;5093069;28;20036;-72
2023/06/10 01:55:34;;;;;;;1.58;0.65;;;;;;;24.20;56.77;98905.56;5092766;28;20032;-72
2023/06/10 01:58:00;;;;;;;2.47;0.80;;;;;;;24.22;56.80;98899.13;5092575;28;20105;-72
2023/06/10 02:00:25;;;;;;;2.55;0.65;;;;;;;24.20;56.63;98903.75;5092885;28;20095;-72
2023/06/10 02:02:50;;;;;;;2.78;0.77;;;;;;;24.18;56.80;98903.06;5091786;28;20047;-71
2023/06/10 02:05:16;;;;;;;2.33;0.50;;;;;;;24.16;56.68;98904.16;5091121;28;20031;-72
2023/06/10 02:07:41;;;;;;;2.88;0.63;;;;;;;24.16;56.75;98904.16;5091096;28;20023;-71
2023/06/10 02:10:08;;;;;;;1.80;0.80;;;;;;;24.15;56.76;98908.63;5092537;28;20396;-71
2023/06/10 02:12:33;;;;;;;2.28;0.60;;;;;;;24.18;56.58;98910.19;5091004;28;20508;-71
2023/06/10 02:14:58;;;;;;;1.70;0.70;;;;;;;24.17;56.84;98916.50;5092532;28;20108;-72
2023/06/10 02:17:24;;;;;;;2.65;0.90;;;;;;;24.16;56.60;98917.47;5086861;28;20020;-72
2023/06/10 02:19:52;;;;;;;3.10;0.93;;;;;;;24.17;56.83;98905.84;5086009;28;20016;-72
2023/06/10 02:22:20;;;;;;;2.03;0.80;;;;;;;24.13;56.82;98919.41;5086895;28;20505;-70
2023/06/10 02:24:45;;;;;;;2.20;0.63;;;;;;;24.12;56.68;98909.72;5092388;28;20153;-71
2023/06/10 02:27:11;;;;;;;4.25;0.90;;;;;;;24.12;56.74;98915.06;5092075;28;20438;-71
2023/06/10 02:29:36;;;;;;;2.17;0.70;;;;;;;24.11;56.94;98916.03;5092591;28;20039;-70
2023/06/10 02:32:02;;;;;;;2.80;0.80;;;;;;;24.13;56.67;98919.41;5092430;28;20027;-71
2023/06/10 02:34:28;;;;;;;3.25;0.60;;;;;;;24.11;56.64;98924.03;5092105;28;20052;-72
2023/06/10 02:36:54;;;;;;;2.08;0.68;;;;;;;24.10;56.76;98917.00;5092313;28;20153;-72
2023/06/10 02:39:19;;;;;;;1.58;0.68;;;;;;;24.08;56.68;98923.44;5092451;28;20024;-72
2023/06/10 02:41:45;;;;;;;2.83;0.75;;;;;;;24.08;56.72;98924.31;5091693;28;20120;-70
2023/06/10 02:44:10;;;;;;;0.95;0.68;;;;;;;24.08;56.70;98929.63;5087780;28;20036;-71
2023/06/10 02:46:35;;;;;;;2.38;0.73;;;;;;;24.06;56.67;98926.19;5092286;28;20020;-72
2023/06/10 02:49:01;;;;;;;2.25;1.20;;;;;;;24.06;56.85;98925.38;5091622;28;20016;-72
2023/06/10 02:51:27;;;;;;;3.65;1.52;;;;;;;24.08;56.73;98921.63;5092168;28;20442;-72
2023/06/10 02:53:52;;;;;;;2.90;0.80;;;;;;;24.04;56.85;98928.16;5091885;28;20512;-72
2023/06/10 02:56:18;;;;;;;2.00;0.80;;;;;;;24.03;56.68;98921.13;5091601;28;20036;-71
2023/06/10 02:58:44;;;;;;;4.15;0.95;;;;;;;24.04;56.70;98921.97;5092016;28;20115;-72
2023/06/10 03:01:10;;;;;;;2.60;1.08;;;;;;;24.05;56.70;98929.84;5091705;28;20488;-72
2023/06/10 03:03:36;;;;;;;1.92;0.77;;;;;;;24.02;56.84;98930.06;5091940;28;20024;-73
2023/06/10 03:06:02;;;;;;;3.30;0.70;;;;;;;24.04;56.75;98928.16;5092006;28;20120;-72
2023/06/10 03:08:28;;;;;;;3.33;0.70;;;;;;;24.02;56.46;98930.06;5091230;28;20222;-72
2023/06/10 03:10:53;;;;;;;3.30;0.95;;;;;;;23.98;56.93;98928.66;5091410;28;20035;-72
2023/06/10 03:13:19;;;;;;;1.38;0.60;;;;;;;23.99;56.84;98941.00;5092136;28;20107;-72
2023/06/10 03:15:45;;;;;;;3.38;0.90;;;;;;;23.96;56.95;98941.25;5091747;28;20782;-72
2023/06/10 03:18:11;;;;;;;2.53;0.80;;;;;;;23.97;57.00;98937.63;5091120;28;20031;-72
2023/06/10 03:20:37;;;;;;;1.80;0.80;;;;;;;23.98;56.90;98928.66;5091879;28;20383;-72
2023/06/10 03:23:06;;;;;;;2.60;0.95;;;;;;;23.97;57.01;98938.47;5092063;28;20024;-72
2023/06/10 03:25:31;;;;;;;2.15;0.75;;;;;;;23.97;56.75;98937.63;5091396;28;20075;-71
2023/06/10 03:27:57;;;;;;;2.30;0.80;;;;;;;23.98;56.65;98940.16;5081393;28;20496;-72
2023/06/10 03:30:22;;;;;;;3.33;1.10;;;;;;;23.98;56.71;98945.47;5071646;28;20455;-71
2023/06/10 03:32:49;;;;;;;3.42;0.80;;;;;;;23.99;56.57;98941.00;5071624;28;20028;-72
2023/06/10 03:35:14;;;;;;;2.47;0.93;;;;;;;23.97;56.52;98938.47;5074256;28;20028;-72
2023/06/10 03:37:40;;;;;;;2.60;0.95;;;;;;;23.98;56.58;98940.16;5075574;28;20025;-73
2023/06/10 03:40:08;;;;;;;2.35;0.65;;;;;;;23.97;56.46;98948.28;5080831;28;20121;-72
2023/06/10 03:42:34;;;;;;;2.67;0.77;;;;;;;23.97;56.59;98958.94;5092186;28;20043;-72
2023/06/10 03:44:59;;;;;;;1.88;0.70;;;;;;;23.95;56.51;98955.53;5095461;28;20028;-72
2023/06/10 03:47:24;;;;;;;2.40;0.90;;;;;;;23.96;56.62;98957.22;5095424;28;20376;-72
2023/06/10 03:49:50;;;;;;;3.63;0.93;;;;;;;23.96;56.53;98957.22;5095468;28;20028;-71
2023/06/10 03:52:15;;;;;;;2.70;0.77;;;;;;;23.98;56.77;98958.78;5095207;28;20495;-72
2023/06/10 03:54:40;;;;;;;2.22;0.80;;;;;;;23.94;56.73;98953.84;5093865;28;20016;-72
2023/06/10 03:57:06;;;;;;;3.50;0.90;;;;;;;23.92;56.62;98956.63;5095186;28;20433;-72
2023/06/10 03:59:32;;;;;;;2.47;1.00;;;;;;;23.88;56.77;98963.22;5095232;28;20031;-72
2023/06/10 04:01:58;;;;;;;3.78;0.82;;;;;;;23.92;56.75;98966.47;5095512;28;20035;-73
2023/06/10 04:04:23;;;;;;;3.97;1.05;;;;;;;23.90;56.45;98966.59;5095024;28;20059;-71
2023/06/10 04:06:49;;;;;;;2.08;0.70;;;;;;;23.91;56.67;98970.94;5095248;28;20024;-72
2023/06/10 04:09:16;;;;;;;4.38;0.93;;;;;;;23.89;56.80;98972.03;5094847;28;20051;-72
2023/06/10 04:11:41;;;;;;;2.05;0.75;;;;;;;23.90;56.77;98974.56;5094761;28;20480;-72
2023/06/10 04:14:08;;;;;;;1.70;0.63;;;;;;;23.92;56.04;98975.28;5094926;28;20026;-72
2023/06/10 04:16:33;;;;;;;2.30;0.80;;;;;;;23.92;56.43;98971.78;5094858;28;20024;-72
2023/06/10 04:19:00;;;;;;;2.55;0.90;;;;;;;23.91;56.59;98975.44;5094921;28;20077;-71
2023/06/10 04:21:26;;;;;;;2.15;0.90;;;;;;;23.92;56.49;98979.78;5094676;28;20031;-72
2023/06/10 04:23:51;;;;;;;3.65;1.00;;;;;;;23.89;56.80;98978.22;5094526;28;20434;-72
2023/06/10 04:26:17;;;;;;;2.13;0.90;;;;;;;23.90;56.50;98984.38;5079158;28;20032;-72
2023/06/10 04:28:43;;;;;;;2.67;0.80;;;;;;;23.90;56.33;98989.69;5074473;28;20103;-73
2023/06/10 04:31:09;;;;;;;2.20;0.82;;;;;;;23.88;56.60;98981.84;5074445;28;20504;-72
2023/06/10 04:33:35;;;;;;;1.65;0.65;;;;;;;23.88;56.57;98992.53;5074324;28;20500;-73
2023/06/10 04:36:01;;;;;;;3.80;0.70;;;;;;;23.88;56.73;98987.19;5074407;28;20024;-73
2023/06/10 04:38:27;;;;;;;2.13;0.70;;;;;;;23.87;56.56;98990.78;5073931;28;20043;-72
2023/06/10 04:40:52;;;;;;;2.88;0.80;;;;;;;23.86;56.58;98995.28;5074200;28;20063;-72
2023/06/10 04:43:18;;;;;;;4.13;0.90;;;;;;;23.90;56.54;98989.69;5074294;28;20028;-72
2023/06/10 04:45:44;;;;;;;2.38;0.75;;;;;;;23.86;56.34;98997.97;5077830;28;20436;-72
2023/06/10 04:48:10;;;;;;;2.30;0.75;;;;;;;23.87;56.42;98991.66;5094087;28;20102;-73
2023/06/10 04:50:36;;;;;;;4.35;0.85;;;;;;;23.86;56.23;98995.28;5094319;28;20028;-73
2023/06/10 04:53:01;;;;;;;3.40;0.88;;;;;;;23.87;56.33;99001.47;5093953;28;20578;-72
2023/06/10 04:55:27;;;;;;;1.08;0.70;;;;;;;23.90;56.43;98998.56;5094180;28;20110;-73
2023/06/10 04:57:52;;;;;;;2.50;0.60;;;;;;;23.89;56.23;98998.69;5094041;28;20491;-72
2023/06/10 05:00:18;;;;;;;1.27;0.75;;;;;;;23.87;56.38;98994.31;5093929;28;20028;-72
2023/06/10 05:02:44;;;;;;;4.55;1.05;;;;;;;23.87;56.48;98996.97;5093952;28;20040;-72
2023/06/10 05:05:10;;;;;;;2.80;0.95;;;;;;;23.89;56.22;99001.34;5093884;28;20026;-73
2023/06/10 05:07:35;;;;;;;1.92;0.80;;;;;;;23.86;56.22;99000.63;5093330;28;20020;-72
2023/06/10 05:10:01;;;;;;;2.22;0.93;;;;;;;23.87;56.36;98996.13;5093859;28;20024;-73
2023/06/10 05:12:26;;;;;;;3.50;1.00;;;;;;;23.89;56.41;99001.34;5093973;28;20065;-72
2023/06/10 05:14:52;;;;;;;2.92;0.80;;;;;;;23.89;56.28;98998.69;5093514;28;20530;-72
2023/06/10 05:17:17;;;;;;;5.45;0.90;;;;;;;23.87;56.48;98998.78;5093736;28;20028;-72
2023/06/10 05:19:44;;;;;;;1.73;0.70;;;;;;;23.91;56.18;99010.06;5093383;28;20065;-72
2023/06/10 05:22:09;;;;;;;2.45;0.90;;;;;;;23.92;56.14;99003.78;5073611;28;20056;-72
2023/06/10 05:24:34;;;;;;;2.17;0.82;;;;;;;23.92;56.08;99009.09;5073238;28;20418;-72
2023/06/10 05:27:00;;;;;;;2.38;1.00;;;;;;;23.90;56.07;99008.34;5073327;28;20020;-71
2023/06/10 05:29:25;;;;;;;5.13;1.30;;;;;;;23.91;56.33;99010.06;5073197;28;20500;-72
2023/06/10 05:31:51;;;;;;;2.22;0.90;;;;;;;23.93;56.11;99005.47;5081679;28;20031;-72
2023/06/10 05:34:16;;;;;;;3.40;0.65;;;;;;;23.91;56.27;99007.41;5093385;28;20032;-72
2023/06/10 05:36:42;;;;;;;2.20;0.90;;;;;;;23.93;56.26;99008.13;5092959;28;20472;-72
2023/06/10 05:39:09;;;;;;;3.72;0.90;;;;;;;23.94;56.10;99007.16;5092789;28;20031;-72
2023/06/10 05:41:34;;;;;;;1.48;0.80;;;;;;;23.94;55.96;99007.16;5093120;28;20111;-72
2023/06/10 05:44:00;;;;;;;1.30;0.75;;;;;;;23.94;55.99;99008.00;5093511;28;20102;-72
2023/06/10 05:46:25;;;;;;;3.95;0.60;;;;;;;23.93;56.11;99018.78;5093019;28;20045;-72
2023/06/10 05:48:51;;;;;;;2.42;0.73;;;;;;;23.93;56.16;99011.66;5093300;28;20020;-72
2023/06/10 05:51:16;;;;;;;2.45;0.90;;;;;;;23.97;56.00;99015.72;5092878;28;20384;-72
2023/06/10 05:53:42;;;;;;;1.73;0.82;;;;;;;23.97;56.00;99015.72;5092914;28;20016;-72
2023/06/10 05:56:07;;;;;;;4.03;1.08;;;;;;;24.00;55.96;99011.97;5092642;28;20035;-72
2023/06/10 05:58:33;;;;;;;1.90;0.98;;;;;;;23.98;55.84;99019.25;5092542;28;20027;-72
2023/06/10 06:00:58;;;;;;;3.47;1.00;;;;;;;23.98;55.87;99019.25;5091365;28;20035;-72
2023/06/10 06:03:24;;;;;;;3.65;1.00;;;;;;;23.98;55.96;99019.25;5092812;28;20606;-73
2023/06/10 06:05:49;;;;;;;2.55;0.80;;;;;;;24.01;56.04;99029.66;5088769;28;20021;-72
2023/06/10 06:08:18;;;;;;;4.90;0.82;;;;;;;24.01;56.01;99024.31;5072622;28;20020;-72
2023/06/10 06:10:44;;;;;;;5.15;1.15;;;;;;;23.99;55.62;99026.28;5072511;28;20031;-72
2023/06/10 06:13:09;;;;;;;2.95;1.00;;;;;;;24.02;55.71;99034.00;5072155;28;20023;-73
2023/06/10 06:15:35;;;;;;;4.60;1.00;;;;;;;24.00;55.84;99028.81;5071482;28;20481;-72
2023/06/10 06:18:00;;;;;;;4.05;1.20;;;;;;;24.00;56.07;99033.28;5072072;28;20016;-72
2023/06/10 06:20:26;;;;;;;8.23;1.48;;;;;;;24.02;55.97;99028.69;5071422;28;20461;-71
2023/06/10 06:22:51;;;;;;;7.00;1.52;;;;;;;24.02;55.88;99031.34;5070614;28;20029;-72
2023/06/10 06:25:16;;;;;;;6.35;1.50;;;;;;;24.04;55.96;99028.56;5072080;28;20095;-72
2023/06/10 06:27:42;;;;;;;11.52;2.20;;;;;;;24.05;55.78;99036.44;5072037;28;20028;-71
2023/06/10 06:30:08;;;;;;;5.18;1.30;;;;;;;24.04;56.18;99037.41;5090874;28;20111;-72
2023/06/10 06:32:33;;;;;;;8.93;1.20;;;;;;;24.04;56.15;99045.41;5092053;28;20028;-73
2023/06/10 06:34:58;;;;;;;6.65;1.42;;;;;;;24.05;56.35;99049.75;5091727;28;20099;-73
2023/06/10 06:37:25;;;;;;;6.80;1.40;;;;;;;24.04;56.01;99042.75;5091981;28;20423;-72
2023/06/10 06:39:51;;;;;;;7.15;1.90;;;;;;;24.05;56.24;99051.56;5076039;28;20203;-72
2023/06/10 06:42:17;;;;;;;4.40;1.63;;;;;;;24.04;56.06;99044.56;5089383;28;20073;-73
2023/06/10 06:44:43;;;;;;;5.55;1.38;;;;;;;24.06;55.98;99045.28;5091665;28;20403;-73
2023/06/10 06:47:08;;;;;;;5.45;1.85;;;;;;;24.05;56.14;99044.44;5091614;28;20035;-72
2023/06/10 06:49:34;;;;;;;8.93;1.80;;;;;;;24.08;56.25;99046.91;5091311;28;20024;-71
2023/06/10 06:51:59;;;;;;;5.85;1.80;;;;;;;24.07;56.04;99045.19;5091850;28;20024;-72
2023/06/10 06:54:25;;;;;;;3.42;1.25;;;;;;;24.10;56.33;99038.75;5090382;28;20039;-73
2023/06/10 06:56:50;;;;;;;5.35;1.38;;;;;;;24.12;55.84;99042.16;5091821;28;20070;-72
2023/06/10 06:59:18;;;;;;;4.32;1.33;;;;;;;24.13;56.02;99042.00;5091546;28;20028;-72
2023/06/10 07:01:44;;;;;;;5.18;1.33;;;;;;;24.12;56.15;99047.50;5091518;28;20070;-72
2023/06/10 07:04:10;;;;;;;5.72;1.60;;;;;;;24.18;55.79;99040.81;5091168;28;20024;-72
2023/06/10 07:06:36;;;;;;;4.72;1.38;;;;;;;24.22;55.80;99050.25;5091743;28;20385;-72
2023/06/10 07:09:01;;;;;;;3.13;1.20;;;;;;;24.19;55.57;99058.50;5085475;28;20392;-73
2023/06/10 07:11:27;;;;;;;3.92;1.10;;;;;;;24.18;55.95;99056.78;5074537;28;20028;-72
2023/06/10 07:13:52;;;;;;;3.42;1.30;;;;;;;24.20;55.81;99060.19;5075695;28;20021;-72
2023/06/10 07:16:20;;;;;;;6.10;1.38;;;;;;;24.22;55.74;99052.91;5075247;28;20021;-72
2023/06/10 07:18:46;;;;;;;3.60;1.10;;;;;;;24.23;55.69;99059.94;5075042;28;20024;-72
2023/06/10 07:21:11;;;;;;;3.58;1.20;;;;;;;24.22;55.71;99058.25;5075420;28;20510;-72
2023/06/10 07:23:36;;;;;;;3.67;1.30;;;;;;;24.22;55.80;99055.59;5075269;28;20016;-72
2023/06/10 07:26:02;;;;;;;4.28;1.45;;;;;;;24.21;55.85;99057.38;5087620;28;20039;-71
2023/06/10 07:28:27;;;;;;;3.38;1.42;;;;;;;24.25;55.64;99055.31;5095185;28;20020;-72
2023/06/10 07:30:52;;;;;;;4.80;1.50;;;;;;;24.24;55.83;99056.28;5095626;28;20028;-74
2023/06/10 07:33:18;;;;;;;3.00;1.08;;;;;;;24.24;55.82;99050.97;5094936;28;20093;-72
2023/06/10 07:35:43;;;;;;;3.63;1.20;;;;;;;24.23;55.73;99057.28;5095130;28;20419;-72
2023/06/10 07:38:09;;;;;;;3.80;1.17;;;;;;;24.23;55.88;99054.59;5095288;28;20025;-72
2023/06/10 07:40:34;;;;;;;3.55;1.13;;;;;;;24.26;55.78;99059.69;5095404;28;20016;-71
2023/06/10 07:43:00;;;;;;;2.95;1.10;;;;;;;24.25;55.69;99061.50;5089131;28;20034;-72
2023/06/10 07:45:25;;;;;;;2.25;1.25;;;;;;;24.25;56.02;99069.50;5076186;28;20028;-72
2023/06/10 07:47:50;;;;;;;2.25;1.10;;;;;;;24.25;55.76;99063.31;5094995;28;20024;-71
2023/06/10 07:50:16;;;;;;;2.10;0.98;;;;;;;24.26;55.88;99070.38;5095229;28;20401;-72
2023/06/10 07:52:41;;;;;;;2.28;0.93;;;;;;;24.30;55.57;99066.47;5095069;28;20028;-72
2023/06/10 07:55:07;;;;;;;3.65;1.40;;;;;;;24.31;55.70;99068.16;5094803;28;20472;-72
2023/06/10 07:57:36;;;;;;;3.20;1.15;;;;;;;24.31;55.68;99073.47;5094981;28;20043;-72
2023/06/10 08:00:05;;;;;;;3.00;1.10;;;;;;;24.33;55.69;99076.88;5094966;28;20553;-72
2023/06/10 08:02:31;;;;;;;2.38;1.17;;;;;;;24.36;55.57;99071.28;5094241;28;20036;-73
2023/06/10 08:04:56;;;;;;;4.32;1.70;;;;;;;24.38;55.51;99073.84;5094837;28;20016;-72
2023/06/10 08:07:22;;;;;;;2.85;1.20;;;;;;;24.39;55.66;99075.53;5094909;28;20020;-71
2023/06/10 08:09:47;;;;;;;3.83;1.20;;;;;;;24.42;55.58;99079.75;5094870;28;20047;-73
2023/06/10 08:12:13;;;;;;;3.53;1.40;;;;;;;24.42;55.72;99069.09;5094881;28;20412;-72
2023/06/10 08:14:39;;;;;;;2.78;0.90;;;;;;;24.46;55.32;99074.03;5094770;28;20023;-72
2023/06/10 08:17:05;;;;;;;3.55;1.17;;;;;;;24.45;55.56;99074.19;5094756;28;20620;-73
2023/06/10 08:19:31;;;;;;;2.97;1.30;;;;;;;24.46;55.67;99075.88;5094275;28;20404;-73
2023/06/10 08:21:56;;;;;;;2.72;1.30;;;;;;;24.51;55.54;99079.03;5088926;28;20028;-72
2023/06/10 08:24:22;;;;;;;1.80;1.10;;;;;;;24.50;55.41;99077.34;5093553;28;20031;-72
2023/06/10 08:26:47;;;;;;;2.28;1.42;;;;;;;24.51;55.31;99079.84;5094777;28;20036;-73
2023/06/10 08:29:13;;;;;;;4.13;1.15;;;;;;;24.52;55.38;99076.25;5094456;28;20412;-72
2023/06/10 08:31:43;;;;;;;3.67;1.15;;;;;;;24.53;55.63;99077.06;5094579;28;20551;-72
2023/06/10 08:34:09;;;;;;;3.47;1.50;;;;;;;24.57;55.29;99083.84;5092636;28;20024;-72
2023/06/10 08:36:34;;;;;;;1.95;1.10;;;;;;;24.61;55.18;99079.09;5094532;28;20039;-72
2023/06/10 08:38:59;;;;;;;4.22;1.15;;;;;;;24.63;55.01;99088.69;5094625;28;20032;-72
2023/06/10 08:41:28;;;;;;;1.90;1.10;;;;;;;24.64;54.88;99090.38;5127256;27;20111;-72
2023/06/10 08:44:12;;;;;;;3.08;1.27;;;;;;;24.69;54.74;99089.16;5073846;28;20037;-72
2023/06/10 08:46:39;;;;;;;2.67;1.35;;;;;;;24.71;54.86;99089.84;5085683;28;20077;-72
2023/06/10 08:49:09;;;;;;;4.25;1.30;;;;;;;24.72;55.01;99091.53;5094053;28;20024;-73
2023/06/10 08:51:36;;;;;;;4.95;1.20;;;;;;;24.73;54.93;99093.22;5094163;28;20044;-72
2023/06/10 08:54:08;;;;;;;2.35;1.15;;;;;;;24.74;54.98;99090.44;5093999;28;20031;-72
2023/06/10 08:56:38;;;;;;;2.28;1.25;;;;;;;24.75;54.87;99096.63;5094003;28;20426;-72
2023/06/10 08:59:05;;;;;;;2.97;1.20;;;;;;;24.75;54.66;99092.13;5092355;28;20035;-72
2023/06/10 09:01:31;;;;;;;2.85;1.45;;;;;;;24.77;54.89;99089.34;5090140;28;20385;-72
2023/06/10 09:03:58;;;;;;;2.45;1.40;;;;;;;24.78;55.04;99096.38;5085161;28;20035;-72
2023/06/10 09:06:24;;;;;;;6.03;1.40;;;;;;;24.80;54.80;99095.28;5093914;28;20035;-73
2023/06/10 09:08:50;;;;;;;3.40;1.52;;;;;;;24.81;54.98;99096.16;5094169;28;20028;-72
2023/06/10 09:11:16;;;;;;;3.17;1.48;;;;;;;24.82;55.32;99089.84;5094004;28;20046;-72
2023/06/10 09:13:42;;;;;;;4.28;1.35;;;;;;;24.84;55.29;99098.56;5093614;28;20438;-71
2023/06/10 09:16:07;;;;;;;4.85;1.60;;;;;;;24.85;55.04;99102.94;5084895;28;20028;-71
2023/06/10 09:18:34;;;;;;;6.55;1.42;;;;;;;24.87;55.40;99100.13;5091991;28;20024;-73
2023/06/10 09:21:00;;;;;;;5.90;1.40;;;;;;;24.87;55.21;99101.00;5093809;28;20484;-72
2023/06/10 09:23:25;;;;;;;3.30;1.20;;;;;;;24.88;55.26;99100.00;5093788;28;20039;-73
2023/06/10 09:25:58;;;;;;;5.50;1.63;;;;;;;24.91;55.18;99101.56;5087204;28;20036;-73
2023/06/10 09:28:24;;;;;;;6.38;1.40;;;;;;;24.93;54.97;99100.47;5088986;28;20038;-73
2023/06/10 09:30:49;;;;;;;7.57;1.65;;;;;;;24.94;55.05;99096.81;5074277;28;20443;-74
2023/06/10 09:33:16;;;;;;;13.95;2.15;;;;;;;24.97;55.32;99103.72;5083925;28;20054;-73
2023/06/10 09:35:49;;;;;;;6.40;2.05;;;;;;;24.98;55.08;99105.41;5079177;28;20103;-72
2023/06/10 09:38:22;;;;;;;8.48;1.90;;;;;;;24.98;55.42;99096.59;5092519;28;20032;-73
2023/06/10 09:40:54;;;;;;;7.07;2.35;;;;;;;24.99;55.10;99095.59;5076378;28;20061;-73
2023/06/10 09:43:20;;;;;;;5.78;2.20;;;;;;;25.01;55.20;99096.31;5087427;28;20040;-73
2023/06/10 09:45:52;;;;;;;6.30;1.90;;;;;;;25.02;55.39;99098.84;5079837;28;20016;-73
2023/06/10 09:48:18;;;;;;;7.28;2.35;;;;;;;25.03;55.14;99089.03;5091026;28;20391;-73
2023/06/10 09:50:45;;;;;;;5.47;2.30;;;;;;;25.06;55.37;99088.75;5090981;28;20080;-72
2023/06/10 09:53:11;;;;;;;5.18;1.98;;;;;;;25.07;55.23;99090.44;5089359;28;20034;-72
2023/06/10 09:55:40;;;;;;;6.22;2.42;;;;;;;25.09;55.48;99088.53;5078152;28;20445;-73
2023/06/10 09:58:06;;;;;;;5.53;2.40;;;;;;;25.09;55.53;99093.84;5075953;28;20451;-73
2023/06/10 10:00:34;;;;;;;4.82;2.20;;;;;;;25.12;55.51;99088.25;5084647;28;20035;-73
2023/06/10 10:03:01;;;;;;;5.25;2.65;;;;;;;25.14;55.18;99090.78;5096437;28;20550;-73
2023/06/10 10:05:27;;;;;;;6.50;2.47;;;;;;;25.13;55.31;99084.59;5090382;28;20114;-73
2023/06/10 10:07:53;;;;;;;6.18;2.05;;;;;;;25.14;55.62;99083.59;5090230;28;20031;-73
2023/06/10 10:10:21;;;;;;;4.57;2.15;;;;;;;25.16;55.55;99086.16;5088158;28;20032;-73
2023/06/10 10:12:48;;;;;;;5.07;2.08;;;;;;;25.17;55.07;99091.38;5087926;28;20027;-73
2023/06/10 10:15:16;;;;;;;4.13;2.03;;;;;;;25.17;55.60;99086.03;5086855;28;20280;-72
2023/06/10 10:18:06;;;;;;;5.32;2.05;;;;;;;25.20;55.37;99085.78;5094013;28;20024;-73
2023/06/10 10:20:34;;;;;;;4.90;2.10;;;;;;;25.22;55.67;99084.81;5094772;28;20012;-73
2023/06/10 10:23:03;;;;;;;7.50;1.95;;;;;;;25.23;55.61;99083.81;5094890;28;20107;-72
2023/06/10 10:25:34;;;;;;;5.90;1.95;;;;;;;25.23;55.39;99087.31;5098374;28;20392;-73
2023/06/10 10:28:10;;;;;;;5.05;1.75;;;;;;;25.24;55.18;99088.19;5082842;28;20016;-73
2023/06/10 10:30:40;;;;;;;3.78;1.85;;;;;;;25.25;55.17;99082.72;5091927;28;20020;-73
2023/06/10 10:33:31;;;;;;;4.78;2.20;;;;;;;25.28;55.28;99076.25;5084925;28;20103;-72
2023/06/10 10:35:57;;;;;;;5.80;3.13;;;;;;;25.28;54.91;99081.59;5091379;28;20112;-73
2023/06/10 10:38:24;;;;;;;5.78;2.28;;;;;;;25.29;55.13;99081.47;5091072;28;20054;-73
2023/06/10 10:40:50;;;;;;;3.78;1.98;;;;;;;25.31;54.87;99081.34;5093609;28;20073;-73
2023/06/10 10:43:17;;;;;;;5.38;2.00;;;;;;;25.33;55.22;99074.06;5091492;28;20020;-73
2023/06/10 10:45:45;;;;;;;6.80;2.33;;;;;;;25.33;55.06;99074.06;5084693;28;20080;-73
2023/06/10 10:48:12;;;;;;;10.05;2.95;;;;;;;25.36;55.09;99079.13;5091435;28;20048;-73
2023/06/10 10:50:38;;;;;;;16.50;5.18;;;;;;;25.38;55.15;99077.19;5084335;28;20023;-73
2023/06/10 10:53:05;;;;;;;10.65;3.70;;;;;;;25.40;55.34;99080.56;5088843;28;20035;-73
2023/06/10 10:55:31;;;;;;;7.95;3.17;;;;;;;25.42;55.30;99072.41;5080310;28;20541;-73
2023/06/10 10:57:59;;;;;;;8.48;3.22;;;;;;;25.45;54.96;99074.81;5087021;28;20044;-73
2023/06/10 11:00:32;;;;;;;9.27;2.97;;;;;;;25.46;55.32;99074.69;5081574;28;20035;-74
2023/06/10 11:03:09;;;;;;;7.32;3.00;;;;;;;25.48;55.29;99078.06;5090142;28;20035;-73
2023/06/10 11:05:44;;;;;;;9.18;3.15;;;;;;;25.50;55.25;99074.41;5091233;28;20399;-72
2023/06/10 11:08:10;;;;;;;10.18;3.17;;;;;;;25.52;54.92;99075.13;5096631;28;20027;-73
2023/06/10 11:10:37;;;;;;;11.82;3.75;;;;;;;25.53;55.25;99074.16;5099431;28;20042;-73
2023/06/10 11:13:13;;;;;;;9.63;3.17;;;;;;;25.54;55.03;99081.22;5084703;28;20020;-73
2023/06/10 11:15:49;;;;;;;10.73;3.38;;;;;;;25.55;54.63;99082.91;5090847;28;20055;-71
2023/06/10 11:18:22;;;;;;;10.07;3.60;;;;;;;25.56;55.15;99068.59;5078572;28;20024;-74
2023/06/10 11:20:53;;;;;;;11.07;3.20;;;;;;;25.57;54.59;99065.75;5087706;28;20400;-73
2023/06/10 11:23:25;;;;;;;14.40;3.30;;;;;;;25.59;54.77;99068.31;5092115;28;20028;-72
2023/06/10 11:25:51;;;;;;;12.18;3.58;;;;;;;25.60;54.51;99070.00;5090969;28;20020;-73
2023/06/10 11:28:19;;;;;;;11.82;2.97;;;;;;;25.62;54.96;99068.06;5079033;28;20021;-73
2023/06/10 11:30:44;;;;;;;10.88;3.17;;;;;;;25.64;55.09;99065.22;5090197;28;20024;-73
2023/06/10 11:33:15;;;;;;;13.52;3.88;;;;;;;25.63;54.84;99067.06;5080673;28;20077;-72